Airfield :
LOGIN :

Register | Disclaimer

   EN    FR    IT 

 










Legend :    VFR   Marginal VFR   IFR   Intensive IFR   Very Intensive IFR
Visi :
Ceiling :
>= 8 km
>= 3000ft
5 to 8 km
1000 to 3000 ft
1500m to 5 km
500 to 1000 ft
800 to 1500m
200 to 500 ft
< 800m
< 200 ft
Symbols :   Thunderstorms  Fog  Heavy snow  Heavy precipitations  Wind > 20 kt
SIGMETs :     Misc.  Thunderstorms  Icing  Turbulence  Mountain Waves  Volcanic Ashes







- Airport Elevation : 245 ft


ETHS - Fassberg

CURRENT METAR :
  • 260720Z 30014KT 9999 SCT110 BKN220 14/08 Q1009 BLU+BLU+ BECMG BLU

EXPIRED METARs :
  • 260620Z 29009KT 9999 SCT110 BKN220 14/07 Q1008 BLU+BLU+ BECMG BLU
  • 260520Z 31008KT 9999 SCT120 SCT230 13/08 Q1007 BLU+BLU+

TAF TAF ETHS
Valid from the 26 at 05:00 until the 26 at 14:00 UTC


260422Z 2605/2614 32005KT 9999 NSW SCT120 SCT250
BECMG 2607/2609 28012KT 9999 NSW SCT060 BKN100
No reported NOTAMs for that airfield.
1 SIGMET reported for the Bremen FIR (EDWW) :
 
Frequent thunderstorms
EDWW SIGMET 1 VALID 260700/260830 EDZF
EDWW BREMEN FIR FRQ TS FCST APRX 40NM WID LINE BTN N5450 E00726 - N5347 E01103 TOP FL310 MOV NE WKN=



MET'MAP, your aeronautical weather chart ! - Copyright ORBIFLY December 2007 - Disclaimer

ORBIFLY MET'MAP TEAM :

Programming & Development : Alexandra Zaïnal
Concept & Development : Baudouin d'Aumeries
Co-Development & Prog : Marc-Olivier Méhu
Technical & hardware support : Manuel Goepfert

Contact : metmap@orbifly.com




SOURCES & CREDITS :

   NOAA